createdAt,value
2023-05-25T04:58:55.238Z,101531.19
2023-05-25T05:01:21.807Z,101535.28
2023-05-25T05:03:48.526Z,101529.94
2023-05-25T05:06:15.370Z,101533.66
2023-05-25T05:08:42.549Z,101533.66
2023-05-25T05:11:09.330Z,101535.34
2023-05-25T05:13:35.970Z,101540.50
2023-05-25T05:16:02.624Z,101536.91
2023-05-25T05:18:29.432Z,101536.56
2023-05-25T05:20:56.292Z,101541.94
2023-05-25T05:23:23.022Z,101551.50
2023-05-25T05:25:49.655Z,101548.38
2023-05-25T05:28:16.285Z,101548.50
2023-05-25T05:30:44.400Z,101561.25
2023-05-25T05:33:11.079Z,101570.56
2023-05-25T05:35:37.704Z,101565.06
2023-05-25T05:38:05.214Z,101560.53
2023-05-25T05:40:31.897Z,101560.91
2023-05-25T05:42:58.568Z,101568.38
2023-05-25T05:45:25.196Z,101571.94
2023-05-25T05:47:51.929Z,101567.84
2023-05-25T05:50:19.371Z,101568.22
2023-05-25T05:52:46.057Z,101562.31
2023-05-25T05:55:12.794Z,101569.72
2023-05-25T05:57:39.463Z,101569.25
2023-05-25T06:00:07.177Z,101573.78
2023-05-25T06:02:34.063Z,101576.66
2023-05-25T06:05:01.939Z,101581.22
2023-05-25T06:07:29.307Z,101578.69
2023-05-25T06:09:56.247Z,101578.00
2023-05-25T06:12:22.969Z,101582.78
2023-05-25T06:14:50.862Z,101584.00
2023-05-25T06:17:17.737Z,101589.19
2023-05-25T06:19:45.073Z,101586.91
2023-05-25T06:22:11.809Z,101599.38
2023-05-25T06:24:38.520Z,101595.59
2023-05-25T06:27:05.380Z,101604.34
2023-05-25T06:29:32.131Z,101600.16
2023-05-25T06:31:58.916Z,101609.72
2023-05-25T06:34:26.283Z,101605.13
2023-05-25T06:36:53.135Z,101616.78
2023-05-25T06:39:20.506Z,101619.28
2023-05-25T06:41:47.242Z,101630.28
2023-05-25T06:44:14.057Z,101617.31
2023-05-25T06:46:41.626Z,101627.13
2023-05-25T06:49:08.457Z,101628.78
2023-05-25T06:51:35.198Z,101634.19
2023-05-25T06:54:01.927Z,101635.00
2023-05-25T06:56:28.811Z,101629.38
2023-05-25T06:58:57.037Z,101641.28
2023-05-25T07:01:23.980Z,101631.47
2023-05-25T07:03:50.764Z,101625.03
2023-05-25T07:06:17.863Z,101626.88
2023-05-25T07:08:44.539Z,101633.16
2023-05-25T07:11:12.805Z,101629.28
2023-05-25T07:13:39.593Z,101631.66
2023-05-25T07:16:06.655Z,101637.50
2023-05-25T07:18:33.647Z,101623.38
2023-05-25T07:21:00.464Z,101634.19
2023-05-25T07:23:27.328Z,101640.41
2023-05-25T07:25:54.013Z,101641.28
2023-05-25T07:28:20.708Z,101637.94
2023-05-25T07:30:47.415Z,101638.97
2023-05-25T07:33:14.052Z,101643.34
2023-05-25T07:35:40.782Z,101637.66
2023-05-25T07:38:07.447Z,101639.97
2023-05-25T07:40:34.165Z,101632.53
2023-05-25T07:43:01.320Z,101639.44
2023-05-25T07:45:28.077Z,101638.81
2023-05-25T07:47:54.982Z,101640.94
2023-05-25T07:50:23.883Z,101651.75
2023-05-25T07:52:50.788Z,101644.69
2023-05-25T07:55:19.497Z,101650.72
2023-05-25T07:57:46.170Z,101648.00
2023-05-25T08:00:13.176Z,101648.53
2023-05-25T08:02:39.942Z,101641.69
2023-05-25T08:05:07.064Z,101650.50
2023-05-25T08:07:34.116Z,101649.66
2023-05-25T08:10:01.703Z,101648.59
2023-05-25T08:12:42.927Z,101656.72
2023-05-25T08:15:14.347Z,101648.38
2023-05-25T08:17:41.983Z,101650.84
2023-05-25T08:20:10.475Z,101661.28
2023-05-25T08:22:37.252Z,101653.75
2023-05-25T08:25:04.446Z,101648.88
2023-05-25T08:27:32.913Z,101664.91
2023-05-25T08:30:02.163Z,101662.22
2023-05-25T08:32:28.968Z,101661.16
2023-05-25T08:34:55.919Z,101663.19
2023-05-25T08:37:23.724Z,101658.16
2023-05-25T08:39:50.738Z,101655.63
2023-05-25T08:42:17.433Z,101660.59
2023-05-25T08:44:44.240Z,101655.56
2023-05-25T08:47:12.734Z,101657.59
2023-05-25T08:49:41.444Z,101657.16
2023-05-25T08:52:13.804Z,101657.34
2023-05-25T08:54:46.657Z,101662.06
2023-05-25T08:57:41.041Z,101658.25
2023-05-25T09:00:11.664Z,101661.19
2023-05-25T09:03:22.817Z,101655.63
2023-05-25T09:05:51.221Z,101653.34
2023-05-25T09:08:17.932Z,101645.63
2023-05-25T09:10:44.777Z,101651.66
2023-05-25T09:13:21.130Z,101655.59
2023-05-25T09:15:50.077Z,101656.78
2023-05-25T09:18:17.052Z,101655.88
2023-05-25T09:20:46.606Z,101650.41
2023-05-25T09:23:15.243Z,101655.75
2023-05-25T09:25:42.185Z,101661.09
2023-05-25T09:28:25.497Z,101671.41
2023-05-25T09:30:53.717Z,101662.69
2023-05-25T09:33:21.246Z,101658.28
2023-05-25T09:35:48.206Z,101656.88
2023-05-25T09:38:16.631Z,101663.44
2023-05-25T09:40:44.411Z,101664.53
2023-05-25T09:43:24.981Z,101672.75
2023-05-25T09:45:59.736Z,101669.94
2023-05-25T09:48:26.579Z,101669.59
2023-05-25T09:50:53.288Z,101668.44
2023-05-25T09:53:20.554Z,101678.84
2023-05-25T09:55:54.749Z,101675.78
2023-05-25T09:58:24.398Z,101683.25
2023-05-25T10:00:55.645Z,101687.72
2023-05-25T10:03:22.815Z,101685.00
2023-05-25T10:05:49.945Z,101688.34
2023-05-25T10:08:20.055Z,101688.72
2023-05-25T10:10:50.139Z,101685.75
2023-05-25T10:13:21.582Z,101685.63
2023-05-25T10:15:51.645Z,101689.19
2023-05-25T10:18:24.726Z,101688.81
2023-05-25T10:21:01.291Z,101689.44
2023-05-25T10:23:35.958Z,101699.59
2023-05-25T10:26:04.664Z,101699.25
2023-05-25T10:28:37.257Z,101701.47
2023-05-25T10:31:05.359Z,101695.91
2023-05-25T10:33:33.361Z,101700.88
2023-05-25T10:36:10.122Z,101703.38
2023-05-25T10:38:40.200Z,101703.28
2023-05-25T10:41:10.126Z,101695.84
2023-05-25T10:43:38.218Z,101695.50
2023-05-25T10:46:06.446Z,101695.13
2023-05-25T10:48:40.377Z,101703.66
2023-05-25T10:51:09.059Z,101699.38
2023-05-25T10:53:37.810Z,101692.75
2023-05-25T10:56:06.797Z,101693.81
2023-05-25T10:58:33.657Z,101685.25
2023-05-25T11:01:07.571Z,101685.81
2023-05-25T11:03:53.144Z,101684.28
2023-05-25T11:06:21.842Z,101684.75
2023-05-25T11:09:04.576Z,101676.78
2023-05-25T11:11:43.083Z,101676.69
2023-05-25T11:14:29.889Z,101672.59
2023-05-25T11:17:15.187Z,101673.50
2023-05-25T11:19:44.215Z,101673.50
2023-05-25T11:22:17.090Z,101678.78
2023-05-25T11:24:47.180Z,101670.84
2023-05-25T11:27:14.054Z,101676.88
2023-05-25T11:29:41.712Z,101669.53
2023-05-25T11:32:15.135Z,101674.34
2023-05-25T11:34:46.689Z,101668.06
2023-05-25T11:37:16.532Z,101676.34
2023-05-25T11:39:48.760Z,101681.28
2023-05-25T11:42:17.063Z,101678.47
2023-05-25T11:44:43.858Z,101674.94
2023-05-25T11:47:14.667Z,101675.75
2023-05-25T11:49:42.622Z,101666.75
2023-05-25T11:52:10.078Z,101668.38
2023-05-25T11:54:37.954Z,101679.28
2023-05-25T11:57:04.860Z,101665.91
2023-05-25T11:59:32.856Z,101665.91
2023-05-25T12:02:04.361Z,101681.28
2023-05-25T12:04:35.361Z,101672.19
2023-05-25T12:07:03.805Z,101671.34
2023-05-25T12:09:30.725Z,101664.84
2023-05-25T12:11:57.543Z,101665.44
2023-05-25T12:14:24.501Z,101670.38
2023-05-25T12:16:52.664Z,101665.53
2023-05-25T12:19:19.596Z,101660.91
2023-05-25T12:21:46.521Z,101657.34
2023-05-25T12:24:13.795Z,101662.78
2023-05-25T12:26:59.294Z,101652.88
2023-05-25T12:29:26.449Z,101657.59
2023-05-25T12:31:53.189Z,101649.41
2023-05-25T12:34:21.054Z,101657.34
2023-05-25T12:36:52.137Z,101642.13
2023-05-25T12:39:39.654Z,101652.78
2023-05-25T12:42:14.334Z,101646.78
2023-05-25T12:44:41.626Z,101648.66
2023-05-25T12:47:23.926Z,101647.75
2023-05-25T12:49:52.611Z,101641.97
2023-05-25T12:52:40.342Z,101641.59
2023-05-25T12:55:27.411Z,101650.94
2023-05-25T12:57:58.017Z,101638.81
2023-05-25T13:00:32.108Z,101642.44
2023-05-25T13:02:59.382Z,101644.94
2023-05-25T13:05:28.053Z,101646.63
2023-05-25T13:07:56.579Z,101637.44
2023-05-25T13:10:24.054Z,101647.38
2023-05-25T13:12:52.031Z,101644.72
2023-05-25T13:15:21.816Z,101645.00
2023-05-25T13:17:50.976Z,101639.06
2023-05-25T13:20:19.306Z,101633.91
2023-05-25T13:22:47.081Z,101634.50
2023-05-25T13:25:14.856Z,101631.53
2023-05-25T13:27:47.063Z,101642.00
2023-05-25T13:30:14.661Z,101633.56
2023-05-25T13:32:45.021Z,101636.34
2023-05-25T13:35:18.596Z,101632.03
2023-05-25T13:37:45.975Z,101629.88
2023-05-25T13:40:13.849Z,101626.09
2023-05-25T13:42:41.028Z,101618.16
2023-05-25T13:45:08.478Z,101618.97
2023-05-25T13:47:35.210Z,101608.03
2023-05-25T13:50:01.984Z,101616.78
2023-05-25T13:52:28.815Z,101614.91
2023-05-25T13:54:55.518Z,101614.06
2023-05-25T13:57:22.735Z,101616.56
2023-05-25T13:59:49.475Z,101613.56
2023-05-25T14:02:16.290Z,101605.38
2023-05-25T14:04:42.940Z,101610.56
2023-05-25T14:07:09.689Z,101602.38
2023-05-25T14:09:36.745Z,101604.84
2023-05-25T14:12:03.663Z,101604.84
2023-05-25T14:14:32.462Z,101601.06
2023-05-25T14:17:01.429Z,101598.06
2023-05-25T14:19:28.766Z,101596.72
2023-05-25T14:24:25.132Z,101597.59
2023-05-25T14:26:51.724Z,101593.03
2023-05-25T14:29:18.386Z,101597.72
2023-05-25T14:31:45.068Z,101592.03
2023-05-25T14:34:11.766Z,101586.09
2023-05-25T14:36:38.414Z,101578.81
2023-05-25T14:39:05.438Z,101582.50
2023-05-25T14:41:32.036Z,101586.41
2023-05-25T14:43:58.679Z,101583.22
2023-05-25T14:46:25.501Z,101587.59
2023-05-25T14:48:52.188Z,101583.25
2023-05-25T14:51:18.810Z,101580.25
2023-05-25T14:53:46.128Z,101590.97
2023-05-25T14:56:12.824Z,101581.91
2023-05-25T14:58:39.624Z,101588.22
2023-05-25T15:01:06.284Z,101582.75
2023-05-25T15:03:33.266Z,101583.88
2023-05-25T15:06:00.019Z,101584.16
2023-05-25T15:08:26.984Z,101577.34
2023-05-25T15:10:53.777Z,101583.94
2023-05-25T15:13:22.775Z,101575.75
2023-05-25T15:15:56.149Z,101573.09
2023-05-25T15:18:23.213Z,101573.97
2023-05-25T15:20:49.886Z,101569.91
2023-05-25T15:23:16.695Z,101566.13
2023-05-25T15:25:43.449Z,101569.44
2023-05-25T15:28:10.278Z,101566.72
2023-05-25T15:30:36.908Z,101566.75
2023-05-25T15:33:03.738Z,101571.16
2023-05-25T15:35:33.467Z,101565.69
2023-05-25T15:38:01.499Z,101564.84
2023-05-25T15:40:28.499Z,101560.19
2023-05-25T15:42:55.152Z,101564.03
2023-05-25T15:45:21.853Z,101564.03
2023-05-25T15:47:48.477Z,101560.19
2023-05-25T15:50:15.118Z,101556.34
2023-05-25T15:52:42.120Z,101550.88
2023-05-25T15:55:09.634Z,101555.81
2023-05-25T15:57:36.292Z,101553.63
2023-05-25T16:00:03.093Z,101559.94
2023-05-25T16:02:29.838Z,101555.84
2023-05-25T16:04:56.542Z,101550.91
2023-05-25T16:07:23.190Z,101553.13
2023-05-25T16:09:49.848Z,101547.66
2023-05-25T16:12:23.580Z,101549.28
2023-05-25T16:14:51.583Z,101543.81
2023-05-25T16:17:18.213Z,101548.97
2023-05-25T16:19:45.032Z,101548.16
2023-05-25T16:22:11.733Z,101536.59
2023-05-25T16:24:38.405Z,101548.09
2023-05-25T16:27:05.232Z,101539.31
2023-05-25T16:29:32.368Z,101535.19
2023-05-25T16:31:59.053Z,101533.28
2023-05-25T16:34:25.946Z,101532.22
2023-05-25T16:36:52.562Z,101523.72
2023-05-25T16:39:19.162Z,101527.00
2023-05-25T16:41:45.764Z,101525.66
2023-05-25T16:44:12.357Z,101520.75
2023-05-25T16:46:39.032Z,101513.34
2023-05-25T16:49:06.012Z,101519.13
2023-05-25T16:51:32.710Z,101510.38
2023-05-25T16:53:59.322Z,101509.28
2023-05-25T16:56:26.412Z,101511.75
2023-05-25T16:58:53.196Z,101508.19
2023-05-25T17:01:19.915Z,101511.22
2023-05-25T17:03:46.689Z,101508.16
2023-05-25T17:06:13.772Z,101506.53
2023-05-25T17:08:40.372Z,101503.25
2023-05-25T17:11:06.994Z,101507.34
2023-05-25T17:13:52.170Z,101507.03
2023-05-25T17:16:18.850Z,101515.53
2023-05-25T17:18:45.592Z,101510.31
2023-05-25T17:21:13.308Z,101515.22
2023-05-25T17:23:39.920Z,101515.22
2023-05-25T17:26:06.526Z,101513.03
2023-05-25T17:28:33.178Z,101507.56
2023-05-25T17:31:00.014Z,101512.19
2023-05-25T17:33:26.633Z,101515.19
2023-05-25T17:35:54.073Z,101508.91
2023-05-25T17:38:20.717Z,101510.28
2023-05-25T17:40:48.105Z,101516.00
2023-05-25T17:43:14.813Z,101518.44
2023-05-25T17:45:41.507Z,101510.19
2023-05-25T17:48:08.336Z,101518.94
2023-05-25T17:50:35.100Z,101518.63
2023-05-25T17:53:01.835Z,101515.59
2023-05-25T17:55:28.408Z,101522.94
2023-05-25T17:57:55.040Z,101528.13
2023-05-25T18:00:23.243Z,101523.72
2023-05-25T18:02:50.246Z,101524.75
2023-05-25T18:05:16.842Z,101527.19
2023-05-25T18:07:43.472Z,101529.06
2023-05-25T18:10:10.401Z,101529.03
2023-05-25T18:12:37.014Z,101515.31
2023-05-25T18:15:03.891Z,101521.88
2023-05-25T18:17:30.597Z,101517.16
2023-05-25T18:19:57.288Z,101519.84
2023-05-25T18:22:23.908Z,101520.88
2023-05-25T18:24:50.758Z,101530.97
2023-05-25T18:27:17.360Z,101519.41
2023-05-25T18:29:44.059Z,101522.94
2023-05-25T18:32:11.041Z,101534.06
2023-05-25T18:34:37.604Z,101526.09
2023-05-25T18:37:04.342Z,101527.94
2023-05-25T18:39:31.544Z,101522.69
2023-05-25T18:41:58.177Z,101531.06
2023-05-25T18:44:25.119Z,101526.66
2023-05-25T18:46:53.184Z,101530.66
2023-05-25T18:49:19.856Z,101533.59
2023-05-25T18:51:46.441Z,101532.69
2023-05-25T18:54:13.115Z,101540.50
2023-05-25T18:56:39.721Z,101531.91
2023-05-25T18:59:06.956Z,101541.41
2023-05-25T19:01:33.651Z,101539.94
2023-05-25T19:04:00.658Z,101538.47
2023-05-25T19:06:27.535Z,101534.53
2023-05-25T19:08:55.378Z,101537.69
2023-05-25T19:11:22.425Z,101539.22
2023-05-25T19:13:49.062Z,101542.38
2023-05-25T19:16:15.861Z,101543.00
2023-05-25T19:18:42.528Z,101544.28
2023-05-25T19:21:09.220Z,101547.38
2023-05-25T19:23:36.077Z,101541.56
2023-05-25T19:26:02.668Z,101547.16
2023-05-25T19:28:29.298Z,101554.91
2023-05-25T19:30:56.023Z,101558.88
2023-05-25T19:33:22.687Z,101562.00
2023-05-25T19:35:49.277Z,101574.13
2023-05-25T19:38:16.066Z,101567.19
2023-05-25T19:40:42.668Z,101575.69
2023-05-25T19:43:09.403Z,101576.09
2023-05-25T19:45:36.162Z,101574.59
2023-05-25T19:48:03.533Z,101578.56
2023-05-25T19:50:31.060Z,101588.97
2023-05-25T19:52:58.784Z,101585.81
2023-05-25T19:55:25.813Z,101587.28
2023-05-25T19:57:52.561Z,101589.28
2023-05-25T20:00:25.901Z,101588.00
2023-05-25T20:02:53.865Z,101584.00
2023-05-25T20:05:20.681Z,101596.56
2023-05-25T20:07:47.577Z,101591.69
2023-05-25T20:10:14.374Z,101594.78
2023-05-25T20:12:41.408Z,101594.53
2023-05-25T20:15:08.452Z,101586.75
2023-05-25T20:17:35.396Z,101586.50
2023-05-25T20:20:03.530Z,101593.91
2023-05-25T20:22:30.212Z,101601.38
2023-05-25T20:24:58.606Z,101601.72
2023-05-25T20:27:25.542Z,101605.47
2023-05-25T20:29:52.247Z,101608.41
2023-05-25T20:32:18.955Z,101614.19
2023-05-25T20:34:45.560Z,101607.38
2023-05-25T20:37:12.153Z,101615.41
2023-05-25T20:39:38.760Z,101610.88
2023-05-25T20:42:05.415Z,101612.06
2023-05-25T20:44:32.272Z,101617.34
2023-05-25T20:46:58.908Z,101620.00
2023-05-25T20:49:26.149Z,101619.31
2023-05-25T20:51:52.840Z,101618.66
2023-05-25T20:54:19.413Z,101627.63
2023-05-25T20:56:47.718Z,101622.81
2023-05-25T20:59:14.345Z,101621.69
2023-05-25T21:01:40.941Z,101636.28
2023-05-25T21:04:07.887Z,101630.16
2023-05-25T21:06:34.620Z,101623.94
2023-05-25T21:09:01.760Z,101627.94
2023-05-25T21:11:28.817Z,101621.03
2023-05-25T21:13:55.772Z,101631.59
2023-05-25T21:16:22.566Z,101628.13
2023-05-25T21:18:49.251Z,101632.56
2023-05-25T21:21:16.245Z,101638.84
2023-05-25T21:23:43.051Z,101636.53
2023-05-25T21:26:09.776Z,101645.38
2023-05-25T21:28:36.418Z,101645.25
2023-05-25T21:31:03.079Z,101649.06
2023-05-25T21:33:33.686Z,101641.69
2023-05-25T21:36:00.279Z,101649.88
2023-05-25T21:50:28.756Z,101671.53
2023-05-25T21:52:55.485Z,101671.00
2023-05-25T21:55:22.269Z,101667.28
2023-05-25T21:57:48.858Z,101669.81
2023-05-25T22:00:15.836Z,101669.13
2023-05-25T22:02:42.623Z,101678.38
2023-05-25T22:05:09.520Z,101677.00
2023-05-25T22:07:36.178Z,101677.88
2023-05-25T22:10:02.769Z,101678.44
2023-05-25T22:12:29.435Z,101676.03
2023-05-25T22:14:56.000Z,101676.03
2023-05-25T22:17:22.687Z,101682.72
2023-05-25T22:19:59.137Z,101692.75
2023-05-25T22:22:33.868Z,101682.81
2023-05-25T22:25:00.566Z,101683.66
2023-05-25T22:27:27.173Z,101690.34
2023-05-25T22:29:53.835Z,101686.81
2023-05-25T22:32:20.607Z,101688.53
2023-05-25T22:34:47.529Z,101692.03
2023-05-25T22:37:14.321Z,101695.78
2023-05-25T22:39:40.988Z,101689.38
2023-05-25T22:42:07.689Z,101690.03
2023-05-25T22:44:37.672Z,101690.00
2023-05-25T22:47:06.398Z,101695.03
2023-05-25T22:49:41.875Z,101692.56
2023-05-25T22:52:11.703Z,101694.25
2023-05-25T22:54:38.429Z,101692.41
2023-05-25T22:57:05.830Z,101696.66
2023-05-25T22:59:32.515Z,101697.59
2023-05-25T23:01:59.173Z,101695.41
2023-05-25T23:04:25.886Z,101693.03
2023-05-25T23:06:52.493Z,101692.31
2023-05-25T23:09:19.156Z,101687.44
2023-05-25T23:11:46.050Z,101692.13
2023-05-25T23:14:12.688Z,101693.91
2023-05-25T23:16:39.409Z,101689.31
2023-05-25T23:19:06.440Z,101688.09
2023-05-25T23:21:33.797Z,101691.22
2023-05-25T23:24:00.598Z,101685.19
2023-05-25T23:26:27.284Z,101685.19
2023-05-25T23:28:53.894Z,101687.56
2023-05-25T23:31:20.680Z,101689.34
2023-05-25T23:33:47.356Z,101688.94
2023-05-25T23:36:14.276Z,101695.09
2023-05-25T23:38:41.352Z,101702.22
2023-05-25T23:41:08.298Z,101702.22
2023-05-25T23:43:34.997Z,101699.28
2023-05-25T23:46:02.598Z,101700.09
2023-05-25T23:48:29.354Z,101699.28
2023-05-25T23:50:56.040Z,101697.19
2023-05-25T23:53:22.675Z,101697.66
2023-05-25T23:55:49.327Z,101697.22
2023-05-25T23:58:15.973Z,101695.59
